sensor_id;sensor_type;location;lat;lon;timestamp;P1;durP1;ratioP1;P2;durP2;ratioP2
18853;SDS011;9556;49.374;19.446;2022-11-18T00:00:36;146.73;;;82.55;;
18853;SDS011;9556;49.374;19.446;2022-11-18T00:03:05;150.60;;;85.82;;
18853;SDS011;9556;49.374;19.446;2022-11-18T00:05:32;154.65;;;86.10;;
18853;SDS011;9556;49.374;19.446;2022-11-18T00:07:59;157.77;;;87.10;;
18853;SDS011;9556;49.374;19.446;2022-11-18T00:10:26;151.77;;;85.22;;
18853;SDS011;9556;49.374;19.446;2022-11-18T00:12:54;161.38;;;88.22;;
18853;SDS011;9556;49.374;19.446;2022-11-18T00:15:39;146.50;;;82.72;;
18853;SDS011;9556;49.374;19.446;2022-11-18T00:18:07;150.63;;;84.43;;
18853;SDS011;9556;49.374;19.446;2022-11-18T00:20:34;160.57;;;86.55;;
18853;SDS011;9556;49.374;19.446;2022-11-18T00:23:03;158.07;;;87.35;;
18853;SDS011;9556;49.374;19.446;2022-11-18T00:25:32;158.85;;;89.45;;
18853;SDS011;9556;49.374;19.446;2022-11-18T00:27:59;156.65;;;87.65;;
18853;SDS011;9556;49.374;19.446;2022-11-18T00:30:26;163.05;;;90.72;;
18853;SDS011;9556;49.374;19.446;2022-11-18T00:32:53;162.38;;;89.10;;
18853;SDS011;9556;49.374;19.446;2022-11-18T00:35:22;164.10;;;91.15;;
18853;SDS011;9556;49.374;19.446;2022-11-18T00:37:49;164.88;;;90.43;;
18853;SDS011;9556;49.374;19.446;2022-11-18T00:40:16;163.98;;;91.10;;
18853;SDS011;9556;49.374;19.446;2022-11-18T00:42:43;165.38;;;92.55;;
18853;SDS011;9556;49.374;19.446;2022-11-18T00:45:15;161.25;;;90.05;;
18853;SDS011;9556;49.374;19.446;2022-11-18T00:47:43;165.65;;;92.15;;
18853;SDS011;9556;49.374;19.446;2022-11-18T00:50:10;163.68;;;91.93;;
18853;SDS011;9556;49.374;19.446;2022-11-18T00:52:39;169.50;;;93.80;;
18853;SDS011;9556;49.374;19.446;2022-11-18T00:55:06;164.57;;;94.20;;
18853;SDS011;9556;49.374;19.446;2022-11-18T00:57:33;166.73;;;92.75;;
18853;SDS011;9556;49.374;19.446;2022-11-18T01:00:00;166.85;;;93.32;;
18853;SDS011;9556;49.374;19.446;2022-11-18T01:02:27;164.32;;;93.18;;
18853;SDS011;9556;49.374;19.446;2022-11-18T01:04:54;166.15;;;93.90;;
18853;SDS011;9556;49.374;19.446;2022-11-18T01:07:22;168.60;;;94.68;;
18853;SDS011;9556;49.374;19.446;2022-11-18T01:09:50;163.57;;;93.50;;
18853;SDS011;9556;49.374;19.446;2022-11-18T01:12:17;171.52;;;95.28;;
18853;SDS011;9556;49.374;19.446;2022-11-18T01:15:02;167.20;;;95.00;;
18853;SDS011;9556;49.374;19.446;2022-11-18T01:17:29;165.23;;;94.00;;
18853;SDS011;9556;49.374;19.446;2022-11-18T01:19:56;174.32;;;96.82;;
18853;SDS011;9556;49.374;19.446;2022-11-18T01:22:23;172.50;;;97.43;;
18853;SDS011;9556;49.374;19.446;2022-11-18T01:24:52;175.90;;;96.18;;
18853;SDS011;9556;49.374;19.446;2022-11-18T01:27:19;169.75;;;94.32;;
18853;SDS011;9556;49.374;19.446;2022-11-18T01:29:46;177.10;;;98.35;;
18853;SDS011;9556;49.374;19.446;2022-11-18T01:32:13;176.23;;;97.65;;
18853;SDS011;9556;49.374;19.446;2022-11-18T01:34:40;172.77;;;97.00;;
18853;SDS011;9556;49.374;19.446;2022-11-18T01:37:08;172.32;;;97.57;;
18853;SDS011;9556;49.374;19.446;2022-11-18T01:39:35;179.82;;;99.95;;
18853;SDS011;9556;49.374;19.446;2022-11-18T01:42:03;176.40;;;100.45;;
18853;SDS011;9556;49.374;19.446;2022-11-18T01:47:16;171.23;;;97.55;;
18853;SDS011;9556;49.374;19.446;2022-11-18T01:49:43;183.38;;;101.45;;
18853;SDS011;9556;49.374;19.446;2022-11-18T01:52:11;179.75;;;99.10;;
18853;SDS011;9556;49.374;19.446;2022-11-18T01:54:39;180.20;;;101.22;;
18853;SDS011;9556;49.374;19.446;2022-11-18T01:57:14;179.80;;;100.63;;
18853;SDS011;9556;49.374;19.446;2022-11-18T01:59:42;178.98;;;98.55;;
18853;SDS011;9556;49.374;19.446;2022-11-18T02:02:11;180.98;;;100.72;;
18853;SDS011;9556;49.374;19.446;2022-11-18T02:04:39;179.23;;;100.00;;
18853;SDS011;9556;49.374;19.446;2022-11-18T02:07:07;181.02;;;100.22;;
18853;SDS011;9556;49.374;19.446;2022-11-18T02:09:34;167.10;;;92.55;;
18853;SDS011;9556;49.374;19.446;2022-11-18T02:12:02;168.38;;;95.20;;
18853;SDS011;9556;49.374;19.446;2022-11-18T02:14:32;171.52;;;93.38;;
18853;SDS011;9556;49.374;19.446;2022-11-18T02:17:03;164.70;;;91.10;;
18853;SDS011;9556;49.374;19.446;2022-11-18T02:19:45;162.68;;;89.07;;
18853;SDS011;9556;49.374;19.446;2022-11-18T02:22:20;164.55;;;91.32;;
18853;SDS011;9556;49.374;19.446;2022-11-18T02:24:54;151.43;;;87.00;;
18853;SDS011;9556;49.374;19.446;2022-11-18T02:27:29;146.32;;;82.93;;
18853;SDS011;9556;49.374;19.446;2022-11-18T02:30:02;151.13;;;83.00;;
18853;SDS011;9556;49.374;19.446;2022-11-18T02:32:32;143.10;;;81.60;;
18853;SDS011;9556;49.374;19.446;2022-11-18T02:35:01;140.18;;;78.18;;
18853;SDS011;9556;49.374;19.446;2022-11-18T02:37:33;140.65;;;77.45;;
18853;SDS011;9556;49.374;19.446;2022-11-18T02:40:02;135.88;;;74.05;;
18853;SDS011;9556;49.374;19.446;2022-11-18T02:42:31;129.18;;;73.20;;
18853;SDS011;9556;49.374;19.446;2022-11-18T02:45:03;126.03;;;71.05;;
18853;SDS011;9556;49.374;19.446;2022-11-18T02:47:31;127.78;;;72.80;;
18853;SDS011;9556;49.374;19.446;2022-11-18T02:50:00;126.68;;;70.15;;
18853;SDS011;9556;49.374;19.446;2022-11-18T02:52:28;121.43;;;67.85;;
18853;SDS011;9556;49.374;19.446;2022-11-18T02:54:57;117.05;;;65.13;;
18853;SDS011;9556;49.374;19.446;2022-11-18T02:57:25;119.28;;;65.10;;
18853;SDS011;9556;49.374;19.446;2022-11-18T02:59:55;114.53;;;63.88;;
18853;SDS011;9556;49.374;19.446;2022-11-18T03:02:23;109.53;;;62.00;;
18853;SDS011;9556;49.374;19.446;2022-11-18T03:04:51;106.65;;;60.58;;
18853;SDS011;9556;49.374;19.446;2022-11-18T03:07:20;113.40;;;62.03;;
18853;SDS011;9556;49.374;19.446;2022-11-18T03:09:49;102.50;;;57.53;;
18853;SDS011;9556;49.374;19.446;2022-11-18T03:12:18;99.22;;;56.42;;
18853;SDS011;9556;49.374;19.446;2022-11-18T03:14:50;97.93;;;56.17;;
18853;SDS011;9556;49.374;19.446;2022-11-18T03:17:19;99.05;;;55.47;;
18853;SDS011;9556;49.374;19.446;2022-11-18T03:19:53;95.25;;;52.70;;
18853;SDS011;9556;49.374;19.446;2022-11-18T03:22:23;92.32;;;53.33;;
18853;SDS011;9556;49.374;19.446;2022-11-18T03:24:54;88.78;;;50.28;;
18853;SDS011;9556;49.374;19.446;2022-11-18T03:27:24;86.10;;;48.05;;
18853;SDS011;9556;49.374;19.446;2022-11-18T03:29:53;88.07;;;49.47;;
18853;SDS011;9556;49.374;19.446;2022-11-18T03:32:23;85.13;;;47.90;;
18853;SDS011;9556;49.374;19.446;2022-11-18T03:34:54;79.80;;;46.33;;
18853;SDS011;9556;49.374;19.446;2022-11-18T03:37:23;79.80;;;45.25;;
18853;SDS011;9556;49.374;19.446;2022-11-18T03:39:52;77.38;;;45.33;;
18853;SDS011;9556;49.374;19.446;2022-11-18T03:42:22;78.68;;;44.67;;
18853;SDS011;9556;49.374;19.446;2022-11-18T03:44:50;75.45;;;43.75;;
18853;SDS011;9556;49.374;19.446;2022-11-18T03:47:18;71.18;;;42.97;;
18853;SDS011;9556;49.374;19.446;2022-11-18T03:49:48;70.43;;;41.55;;
18853;SDS011;9556;49.374;19.446;2022-11-18T03:52:18;70.97;;;40.83;;
18853;SDS011;9556;49.374;19.446;2022-11-18T03:54:46;69.30;;;39.78;;
18853;SDS011;9556;49.374;19.446;2022-11-18T03:57:15;66.82;;;39.58;;
18853;SDS011;9556;49.374;19.446;2022-11-18T03:59:47;60.95;;;37.40;;
18853;SDS011;9556;49.374;19.446;2022-11-18T04:02:15;63.03;;;36.67;;
18853;SDS011;9556;49.374;19.446;2022-11-18T04:04:44;61.72;;;36.28;;
18853;SDS011;9556;49.374;19.446;2022-11-18T04:07:13;57.67;;;34.72;;
18853;SDS011;9556;49.374;19.446;2022-11-18T04:09:46;58.05;;;35.13;;
18853;SDS011;9556;49.374;19.446;2022-11-18T04:12:16;60.10;;;34.63;;
18853;SDS011;9556;49.374;19.446;2022-11-18T04:14:44;56.63;;;33.67;;
18853;SDS011;9556;49.374;19.446;2022-11-18T04:17:14;57.45;;;33.45;;
18853;SDS011;9556;49.374;19.446;2022-11-18T04:19:42;54.30;;;32.33;;
18853;SDS011;9556;49.374;19.446;2022-11-18T04:22:09;56.78;;;33.92;;
18853;SDS011;9556;49.374;19.446;2022-11-18T04:24:36;62.38;;;36.45;;
18853;SDS011;9556;49.374;19.446;2022-11-18T04:27:05;68.22;;;37.65;;
18853;SDS011;9556;49.374;19.446;2022-11-18T04:29:32;59.63;;;35.80;;
18853;SDS011;9556;49.374;19.446;2022-11-18T04:32:00;56.25;;;32.15;;
18853;SDS011;9556;49.374;19.446;2022-11-18T04:34:27;57.42;;;33.22;;
18853;SDS011;9556;49.374;19.446;2022-11-18T04:36:55;56.40;;;32.47;;
18853;SDS011;9556;49.374;19.446;2022-11-18T04:39:22;49.55;;;30.45;;
18853;SDS011;9556;49.374;19.446;2022-11-18T04:41:49;48.67;;;28.73;;
18853;SDS011;9556;49.374;19.446;2022-11-18T04:44:24;47.13;;;28.42;;
18853;SDS011;9556;49.374;19.446;2022-11-18T04:46:52;47.42;;;28.02;;
18853;SDS011;9556;49.374;19.446;2022-11-18T04:49:20;43.78;;;26.75;;
18853;SDS011;9556;49.374;19.446;2022-11-18T04:51:47;43.75;;;26.35;;
18853;SDS011;9556;49.374;19.446;2022-11-18T04:54:15;44.05;;;26.60;;
18853;SDS011;9556;49.374;19.446;2022-11-18T04:56:42;43.38;;;25.95;;
18853;SDS011;9556;49.374;19.446;2022-11-18T04:59:10;43.78;;;25.88;;
18853;SDS011;9556;49.374;19.446;2022-11-18T05:01:39;40.40;;;25.63;;
18853;SDS011;9556;49.374;19.446;2022-11-18T05:04:06;41.53;;;25.40;;
18853;SDS011;9556;49.374;19.446;2022-11-18T05:06:33;41.17;;;25.23;;
18853;SDS011;9556;49.374;19.446;2022-11-18T05:09:01;36.58;;;23.38;;
18853;SDS011;9556;49.374;19.446;2022-11-18T05:11:28;38.33;;;24.20;;
18853;SDS011;9556;49.374;19.446;2022-11-18T05:14:13;34.67;;;22.23;;
18853;SDS011;9556;49.374;19.446;2022-11-18T05:16:41;37.45;;;22.98;;
18853;SDS011;9556;49.374;19.446;2022-11-18T05:19:08;34.30;;;21.33;;
18853;SDS011;9556;49.374;19.446;2022-11-18T05:21:36;36.80;;;22.02;;
18853;SDS011;9556;49.374;19.446;2022-11-18T05:24:03;33.58;;;20.63;;
18853;SDS011;9556;49.374;19.446;2022-11-18T05:26:30;32.50;;;20.55;;
18853;SDS011;9556;49.374;19.446;2022-11-18T05:28:58;30.02;;;19.30;;
18853;SDS011;9556;49.374;19.446;2022-11-18T05:31:25;30.35;;;19.10;;
18853;SDS011;9556;49.374;19.446;2022-11-18T05:33:53;29.17;;;18.75;;
18853;SDS011;9556;49.374;19.446;2022-11-18T05:36:21;28.25;;;18.33;;
18853;SDS011;9556;49.374;19.446;2022-11-18T05:38:48;30.75;;;18.77;;
18853;SDS011;9556;49.374;19.446;2022-11-18T05:41:15;31.40;;;19.08;;
18853;SDS011;9556;49.374;19.446;2022-11-18T05:43:57;25.60;;;17.00;;
18853;SDS011;9556;49.374;19.446;2022-11-18T05:46:24;29.38;;;18.05;;
18853;SDS011;9556;49.374;19.446;2022-11-18T05:48:51;27.67;;;17.38;;
18853;SDS011;9556;49.374;19.446;2022-11-18T05:51:20;26.40;;;17.00;;
18853;SDS011;9556;49.374;19.446;2022-11-18T05:53:47;25.77;;;16.73;;
18853;SDS011;9556;49.374;19.446;2022-11-18T05:56:16;24.60;;;15.95;;
18853;SDS011;9556;49.374;19.446;2022-11-18T05:58:44;25.10;;;16.00;;
18853;SDS011;9556;49.374;19.446;2022-11-18T06:01:11;24.83;;;15.55;;
18853;SDS011;9556;49.374;19.446;2022-11-18T06:03:40;24.05;;;15.63;;
18853;SDS011;9556;49.374;19.446;2022-11-18T06:06:08;23.83;;;15.50;;
18853;SDS011;9556;49.374;19.446;2022-11-18T06:08:38;24.90;;;15.95;;
18853;SDS011;9556;49.374;19.446;2022-11-18T06:11:06;23.73;;;15.27;;
18853;SDS011;9556;49.374;19.446;2022-11-18T06:13:35;24.98;;;14.07;;
18853;SDS011;9556;49.374;19.446;2022-11-18T06:16:03;21.48;;;13.93;;
18853;SDS011;9556;49.374;19.446;2022-11-18T06:18:30;21.83;;;13.98;;
18853;SDS011;9556;49.374;19.446;2022-11-18T06:21:00;20.13;;;13.50;;
18853;SDS011;9556;49.374;19.446;2022-11-18T06:23:27;22.20;;;13.90;;
18853;SDS011;9556;49.374;19.446;2022-11-18T06:25:56;20.73;;;13.38;;
18853;SDS011;9556;49.374;19.446;2022-11-18T06:28:23;21.88;;;13.77;;
18853;SDS011;9556;49.374;19.446;2022-11-18T06:30:51;27.42;;;15.45;;
18853;SDS011;9556;49.374;19.446;2022-11-18T06:33:19;26.00;;;16.27;;
18853;SDS011;9556;49.374;19.446;2022-11-18T06:35:46;28.38;;;16.38;;
18853;SDS011;9556;49.374;19.446;2022-11-18T06:38:13;24.90;;;15.73;;
18853;SDS011;9556;49.374;19.446;2022-11-18T06:40:40;24.90;;;15.60;;
18853;SDS011;9556;49.374;19.446;2022-11-18T06:43:10;25.17;;;15.32;;
18853;SDS011;9556;49.374;19.446;2022-11-18T06:45:56;22.42;;;14.48;;
18853;SDS011;9556;49.374;19.446;2022-11-18T06:48:41;20.85;;;13.30;;
18853;SDS011;9556;49.374;19.446;2022-11-18T06:51:09;24.83;;;13.82;;
18853;SDS011;9556;49.374;19.446;2022-11-18T06:53:36;20.35;;;13.63;;
18853;SDS011;9556;49.374;19.446;2022-11-18T06:56:03;20.15;;;13.63;;
18853;SDS011;9556;49.374;19.446;2022-11-18T06:58:32;20.05;;;13.68;;
18853;SDS011;9556;49.374;19.446;2022-11-18T07:01:07;23.27;;;14.45;;
18853;SDS011;9556;49.374;19.446;2022-11-18T07:03:35;26.75;;;13.52;;
18853;SDS011;9556;49.374;19.446;2022-11-18T07:06:02;21.58;;;13.10;;
18853;SDS011;9556;49.374;19.446;2022-11-18T07:08:29;20.98;;;13.68;;
18853;SDS011;9556;49.374;19.446;2022-11-18T07:10:56;19.63;;;12.45;;
18853;SDS011;9556;49.374;19.446;2022-11-18T07:13:23;20.13;;;12.60;;
18853;SDS011;9556;49.374;19.446;2022-11-18T07:15:52;17.00;;;11.60;;
18853;SDS011;9556;49.374;19.446;2022-11-18T07:18:19;20.25;;;13.18;;
18853;SDS011;9556;49.374;19.446;2022-11-18T07:20:46;20.20;;;12.52;;
18853;SDS011;9556;49.374;19.446;2022-11-18T07:23:13;18.27;;;12.23;;
18853;SDS011;9556;49.374;19.446;2022-11-18T07:25:40;19.60;;;12.20;;
18853;SDS011;9556;49.374;19.446;2022-11-18T07:28:07;24.80;;;12.38;;
18853;SDS011;9556;49.374;19.446;2022-11-18T07:30:35;19.35;;;11.95;;
18853;SDS011;9556;49.374;19.446;2022-11-18T07:33:03;19.35;;;11.80;;
18853;SDS011;9556;49.374;19.446;2022-11-18T07:35:31;20.05;;;11.80;;
18853;SDS011;9556;49.374;19.446;2022-11-18T07:37:58;20.83;;;12.10;;
18853;SDS011;9556;49.374;19.446;2022-11-18T07:40:26;20.40;;;11.30;;
18853;SDS011;9556;49.374;19.446;2022-11-18T07:42:53;19.45;;;11.52;;
18853;SDS011;9556;49.374;19.446;2022-11-18T07:45:20;22.73;;;11.90;;
18853;SDS011;9556;49.374;19.446;2022-11-18T07:47:47;19.00;;;12.27;;
18853;SDS011;9556;49.374;19.446;2022-11-18T07:50:16;17.17;;;11.60;;
18853;SDS011;9556;49.374;19.446;2022-11-18T07:52:43;16.30;;;11.20;;
18853;SDS011;9556;49.374;19.446;2022-11-18T07:55:10;18.55;;;11.30;;
18853;SDS011;9556;49.374;19.446;2022-11-18T07:57:38;18.13;;;11.55;;
18853;SDS011;9556;49.374;19.446;2022-11-18T08:00:05;20.05;;;10.60;;
18853;SDS011;9556;49.374;19.446;2022-11-18T08:02:32;17.33;;;11.73;;
18853;SDS011;9556;49.374;19.446;2022-11-18T08:05:00;18.92;;;11.60;;
18853;SDS011;9556;49.374;19.446;2022-11-18T08:07:28;22.30;;;11.10;;
18853;SDS011;9556;49.374;19.446;2022-11-18T08:09:55;17.30;;;10.82;;
18853;SDS011;9556;49.374;19.446;2022-11-18T08:12:22;15.90;;;10.05;;
18853;SDS011;9556;49.374;19.446;2022-11-18T08:14:50;19.08;;;10.15;;
18853;SDS011;9556;49.374;19.446;2022-11-18T08:17:17;16.02;;;10.68;;
18853;SDS011;9556;49.374;19.446;2022-11-18T08:19:44;15.30;;;10.27;;
18853;SDS011;9556;49.374;19.446;2022-11-18T08:22:11;14.45;;;10.27;;
18853;SDS011;9556;49.374;19.446;2022-11-18T08:24:42;17.65;;;10.27;;
18853;SDS011;9556;49.374;19.446;2022-11-18T08:27:09;17.88;;;9.70;;
18853;SDS011;9556;49.374;19.446;2022-11-18T08:29:36;21.23;;;10.13;;
18853;SDS011;9556;49.374;19.446;2022-11-18T08:32:04;31.42;;;10.80;;
18853;SDS011;9556;49.374;19.446;2022-11-18T08:34:31;20.77;;;11.20;;
18853;SDS011;9556;49.374;19.446;2022-11-18T08:36:58;22.02;;;11.88;;
18853;SDS011;9556;49.374;19.446;2022-11-18T08:39:25;23.67;;;11.30;;
18853;SDS011;9556;49.374;19.446;2022-11-18T08:41:56;18.98;;;10.70;;
18853;SDS011;9556;49.374;19.446;2022-11-18T08:44:23;17.77;;;10.75;;
18853;SDS011;9556;49.374;19.446;2022-11-18T08:46:51;16.73;;;10.82;;
18853;SDS011;9556;49.374;19.446;2022-11-18T08:49:18;17.00;;;10.05;;
18853;SDS011;9556;49.374;19.446;2022-11-18T08:51:45;16.88;;;10.65;;
18853;SDS011;9556;49.374;19.446;2022-11-18T08:54:12;20.67;;;10.43;;
18853;SDS011;9556;49.374;19.446;2022-11-18T08:56:39;17.02;;;10.60;;
18853;SDS011;9556;49.374;19.446;2022-11-18T08:59:08;20.17;;;10.48;;
18853;SDS011;9556;49.374;19.446;2022-11-18T09:01:35;23.50;;;10.75;;
18853;SDS011;9556;49.374;19.446;2022-11-18T09:04:02;19.88;;;11.27;;
18853;SDS011;9556;49.374;19.446;2022-11-18T09:06:29;19.65;;;11.07;;
18853;SDS011;9556;49.374;19.446;2022-11-18T09:08:58;21.67;;;10.88;;
18853;SDS011;9556;49.374;19.446;2022-11-18T09:11:26;18.90;;;10.45;;
18853;SDS011;9556;49.374;19.446;2022-11-18T09:13:54;20.15;;;11.05;;
18853;SDS011;9556;49.374;19.446;2022-11-18T09:16:23;26.98;;;10.73;;
18853;SDS011;9556;49.374;19.446;2022-11-18T09:18:50;23.65;;;9.80;;
18853;SDS011;9556;49.374;19.446;2022-11-18T09:21:17;23.42;;;10.38;;
18853;SDS011;9556;49.374;19.446;2022-11-18T09:23:45;25.77;;;10.05;;
18853;SDS011;9556;49.374;19.446;2022-11-18T09:26:12;15.60;;;9.63;;
18853;SDS011;9556;49.374;19.446;2022-11-18T09:28:40;22.60;;;9.85;;
18853;SDS011;9556;49.374;19.446;2022-11-18T09:31:08;15.98;;;8.90;;
18853;SDS011;9556;49.374;19.446;2022-11-18T09:33:37;20.38;;;9.15;;
18853;SDS011;9556;49.374;19.446;2022-11-18T09:36:05;19.42;;;9.20;;
18853;SDS011;9556;49.374;19.446;2022-11-18T09:38:32;14.85;;;8.98;;
18853;SDS011;9556;49.374;19.446;2022-11-18T09:41:01;14.88;;;8.15;;
18853;SDS011;9556;49.374;19.446;2022-11-18T09:43:34;24.08;;;9.10;;
18853;SDS011;9556;49.374;19.446;2022-11-18T09:46:08;17.38;;;9.02;;
18853;SDS011;9556;49.374;19.446;2022-11-18T09:48:45;15.75;;;8.57;;
18853;SDS011;9556;49.374;19.446;2022-11-18T09:51:30;17.60;;;8.88;;
18853;SDS011;9556;49.374;19.446;2022-11-18T09:54:02;15.73;;;8.52;;
18853;SDS011;9556;49.374;19.446;2022-11-18T09:56:29;18.65;;;9.32;;
18853;SDS011;9556;49.374;19.446;2022-11-18T09:58:56;30.60;;;10.20;;
18853;SDS011;9556;49.374;19.446;2022-11-18T10:01:23;30.55;;;10.93;;
18853;SDS011;9556;49.374;19.446;2022-11-18T10:03:52;25.38;;;11.05;;
18853;SDS011;9556;49.374;19.446;2022-11-18T10:06:20;27.05;;;11.52;;
18853;SDS011;9556;49.374;19.446;2022-11-18T10:08:56;27.70;;;9.75;;
18853;SDS011;9556;49.374;19.446;2022-11-18T10:11:25;21.73;;;9.40;;
18853;SDS011;9556;49.374;19.446;2022-11-18T10:13:54;21.88;;;8.85;;
18853;SDS011;9556;49.374;19.446;2022-11-18T10:16:28;20.40;;;8.45;;
18853;SDS011;9556;49.374;19.446;2022-11-18T10:19:00;19.90;;;8.02;;
18853;SDS011;9556;49.374;19.446;2022-11-18T10:21:35;17.10;;;7.93;;
18853;SDS011;9556;49.374;19.446;2022-11-18T10:24:07;17.17;;;7.75;;
18853;SDS011;9556;49.374;19.446;2022-11-18T10:26:39;23.58;;;7.85;;
18853;SDS011;9556;49.374;19.446;2022-11-18T10:29:06;20.92;;;7.55;;
18853;SDS011;9556;49.374;19.446;2022-11-18T10:31:35;20.27;;;8.32;;
18853;SDS011;9556;49.374;19.446;2022-11-18T10:34:04;24.38;;;8.18;;
18853;SDS011;9556;49.374;19.446;2022-11-18T10:36:32;14.32;;;6.82;;
18853;SDS011;9556;49.374;19.446;2022-11-18T10:39:04;19.52;;;7.18;;
18853;SDS011;9556;49.374;19.446;2022-11-18T10:41:45;18.77;;;7.32;;
18853;SDS011;9556;49.374;19.446;2022-11-18T10:44:31;17.90;;;7.00;;
18853;SDS011;9556;49.374;19.446;2022-11-18T10:49:46;14.25;;;6.57;;
18853;SDS011;9556;49.374;19.446;2022-11-18T10:52:13;12.90;;;7.22;;
18853;SDS011;9556;49.374;19.446;2022-11-18T10:54:41;14.15;;;7.07;;
18853;SDS011;9556;49.374;19.446;2022-11-18T10:57:12;18.30;;;7.57;;
18853;SDS011;9556;49.374;19.446;2022-11-18T10:59:45;24.02;;;6.75;;
18853;SDS011;9556;49.374;19.446;2022-11-18T11:02:14;21.02;;;7.45;;
18853;SDS011;9556;49.374;19.446;2022-11-18T11:04:42;47.83;;;11.07;;
18853;SDS011;9556;49.374;19.446;2022-11-18T11:07:19;151.95;;;31.05;;
18853;SDS011;9556;49.374;19.446;2022-11-18T11:10:00;205.63;;;42.08;;
18853;SDS011;9556;49.374;19.446;2022-11-18T11:12:27;129.55;;;32.70;;
18853;SDS011;9556;49.374;19.446;2022-11-18T11:14:57;106.47;;;23.52;;
18853;SDS011;9556;49.374;19.446;2022-11-18T11:17:26;80.18;;;20.35;;
18853;SDS011;9556;49.374;19.446;2022-11-18T11:19:58;68.85;;;16.73;;
18853;SDS011;9556;49.374;19.446;2022-11-18T11:22:29;57.85;;;15.75;;
18853;SDS011;9556;49.374;19.446;2022-11-18T11:24:56;40.42;;;15.18;;
18853;SDS011;9556;49.374;19.446;2022-11-18T11:27:30;116.07;;;55.50;;
18853;SDS011;9556;49.374;19.446;2022-11-18T11:35:45;52.67;;;16.90;;
18853;SDS011;9556;49.374;19.446;2022-11-18T11:38:16;43.17;;;15.02;;
18853;SDS011;9556;49.374;19.446;2022-11-18T11:40:51;39.20;;;14.45;;
18853;SDS011;9556;49.374;19.446;2022-11-18T11:43:22;44.28;;;13.90;;
18853;SDS011;9556;49.374;19.446;2022-11-18T11:45:58;53.75;;;13.18;;
18853;SDS011;9556;49.374;19.446;2022-11-18T11:48:31;37.42;;;13.18;;
18853;SDS011;9556;49.374;19.446;2022-11-18T11:51:01;39.55;;;12.18;;
18853;SDS011;9556;49.374;19.446;2022-11-18T11:54:01;29.45;;;11.70;;
18853;SDS011;9556;49.374;19.446;2022-11-18T11:56:31;33.95;;;12.02;;
18853;SDS011;9556;49.374;19.446;2022-11-18T11:59:03;34.60;;;10.98;;
18853;SDS011;9556;49.374;19.446;2022-11-18T12:01:33;37.60;;;11.23;;
18853;SDS011;9556;49.374;19.446;2022-11-18T12:04:03;23.63;;;10.27;;
18853;SDS011;9556;49.374;19.446;2022-11-18T12:06:36;30.65;;;10.05;;
18853;SDS011;9556;49.374;19.446;2022-11-18T12:09:10;44.08;;;11.00;;
18853;SDS011;9556;49.374;19.446;2022-11-18T12:11:42;27.42;;;9.90;;
18853;SDS011;9556;49.374;19.446;2022-11-18T12:14:14;28.90;;;10.38;;
18853;SDS011;9556;49.374;19.446;2022-11-18T12:16:48;26.05;;;9.32;;
18853;SDS011;9556;49.374;19.446;2022-11-18T12:19:18;21.38;;;9.65;;
18853;SDS011;9556;49.374;19.446;2022-11-18T12:21:52;22.20;;;9.70;;
18853;SDS011;9556;49.374;19.446;2022-11-18T12:24:24;32.10;;;9.13;;
18853;SDS011;9556;49.374;19.446;2022-11-18T12:26:55;23.45;;;9.00;;
18853;SDS011;9556;49.374;19.446;2022-11-18T12:29:23;19.83;;;8.85;;
18853;SDS011;9556;49.374;19.446;2022-11-18T12:31:51;25.27;;;8.75;;
18853;SDS011;9556;49.374;19.446;2022-11-18T12:34:30;21.73;;;8.43;;
18853;SDS011;9556;49.374;19.446;2022-11-18T12:37:36;24.27;;;8.27;;
18853;SDS011;9556;49.374;19.446;2022-11-18T12:39:57;22.30;;;7.88;;
18853;SDS011;9556;49.374;19.446;2022-11-18T12:42:34;19.23;;;7.50;;
18853;SDS011;9556;49.374;19.446;2022-11-18T12:50:48;26.15;;;8.18;;
18853;SDS011;9556;49.374;19.446;2022-11-18T12:53:27;20.13;;;7.35;;
18853;SDS011;9556;49.374;19.446;2022-11-18T12:55:58;18.05;;;6.90;;
18853;SDS011;9556;49.374;19.446;2022-11-18T12:58:25;16.13;;;7.15;;
18853;SDS011;9556;49.374;19.446;2022-11-18T13:01:02;25.45;;;7.22;;
18853;SDS011;9556;49.374;19.446;2022-11-18T13:03:30;22.17;;;7.18;;
18853;SDS011;9556;49.374;19.446;2022-11-18T13:05:59;17.95;;;6.65;;
18853;SDS011;9556;49.374;19.446;2022-11-18T13:08:27;16.38;;;6.97;;
18853;SDS011;9556;49.374;19.446;2022-11-18T13:10:55;24.33;;;6.72;;
18853;SDS011;9556;49.374;19.446;2022-11-18T13:13:44;15.93;;;6.10;;
18853;SDS011;9556;49.374;19.446;2022-11-18T13:16:15;17.17;;;6.57;;
18853;SDS011;9556;49.374;19.446;2022-11-18T13:19:00;16.13;;;5.97;;
18853;SDS011;9556;49.374;19.446;2022-11-18T13:21:28;20.80;;;6.32;;
18853;SDS011;9556;49.374;19.446;2022-11-18T13:24:13;14.63;;;6.03;;
18853;SDS011;9556;49.374;19.446;2022-11-18T13:26:41;17.60;;;5.82;;
18853;SDS011;9556;49.374;19.446;2022-11-18T13:32:04;11.88;;;5.20;;
18853;SDS011;9556;49.374;19.446;2022-11-18T13:34:39;18.27;;;5.38;;
18853;SDS011;9556;49.374;19.446;2022-11-18T13:37:11;16.13;;;6.22;;
18853;SDS011;9556;49.374;19.446;2022-11-18T13:39:41;21.20;;;5.97;;
18853;SDS011;9556;49.374;19.446;2022-11-18T13:42:13;15.75;;;5.72;;
18853;SDS011;9556;49.374;19.446;2022-11-18T13:44:42;14.20;;;5.53;;
18853;SDS011;9556;49.374;19.446;2022-11-18T13:47:12;13.95;;;5.72;;
18853;SDS011;9556;49.374;19.446;2022-11-18T13:49:49;14.82;;;5.50;;
18853;SDS011;9556;49.374;19.446;2022-11-18T13:52:21;22.10;;;5.68;;
18853;SDS011;9556;49.374;19.446;2022-11-18T13:54:50;15.65;;;5.88;;
18853;SDS011;9556;49.374;19.446;2022-11-18T13:57:18;17.80;;;5.72;;
18853;SDS011;9556;49.374;19.446;2022-11-18T13:59:46;20.58;;;6.00;;
18853;SDS011;9556;49.374;19.446;2022-11-18T14:02:15;14.13;;;5.43;;
18853;SDS011;9556;49.374;19.446;2022-11-18T14:04:46;11.95;;;5.47;;
18853;SDS011;9556;49.374;19.446;2022-11-18T14:07:20;21.10;;;5.45;;
18853;SDS011;9556;49.374;19.446;2022-11-18T14:09:52;17.38;;;5.80;;
18853;SDS011;9556;49.374;19.446;2022-11-18T14:12:21;12.13;;;5.55;;
18853;SDS011;9556;49.374;19.446;2022-11-18T14:14:48;10.73;;;5.35;;
18853;SDS011;9556;49.374;19.446;2022-11-18T14:17:17;15.38;;;5.50;;
18853;SDS011;9556;49.374;19.446;2022-11-18T14:19:45;21.58;;;5.75;;
18853;SDS011;9556;49.374;19.446;2022-11-18T14:22:14;10.20;;;4.57;;
18853;SDS011;9556;49.374;19.446;2022-11-18T14:24:42;12.63;;;5.10;;
18853;SDS011;9556;49.374;19.446;2022-11-18T14:27:32;15.27;;;4.78;;
18853;SDS011;9556;49.374;19.446;2022-11-18T14:30:00;11.20;;;4.78;;
18853;SDS011;9556;49.374;19.446;2022-11-18T14:32:28;21.25;;;5.20;;
18853;SDS011;9556;49.374;19.446;2022-11-18T14:34:56;9.27;;;5.28;;
18853;SDS011;9556;49.374;19.446;2022-11-18T14:37:23;13.63;;;5.10;;
18853;SDS011;9556;49.374;19.446;2022-11-18T14:39:53;15.20;;;4.90;;
18853;SDS011;9556;49.374;19.446;2022-11-18T14:42:20;16.08;;;7.85;;
18853;SDS011;9556;49.374;19.446;2022-11-18T14:44:47;24.50;;;8.70;;
18853;SDS011;9556;49.374;19.446;2022-11-18T14:47:16;16.42;;;8.20;;
18853;SDS011;9556;49.374;19.446;2022-11-18T14:49:46;12.88;;;7.00;;
18853;SDS011;9556;49.374;19.446;2022-11-18T14:52:13;20.02;;;7.10;;
18853;SDS011;9556;49.374;19.446;2022-11-18T14:54:40;15.38;;;6.88;;